createdAt,value
2022-09-22T00:00:14.007Z,93.98
2022-09-22T00:03:05.895Z,93.97
2022-09-22T00:05:37.916Z,94.02
2022-09-22T00:08:09.706Z,93.94
2022-09-22T00:10:41.463Z,94.11
2022-09-22T00:13:13.256Z,93.80
2022-09-22T00:15:49.490Z,93.92
2022-09-22T00:18:21.273Z,93.87
2022-09-22T00:20:53.076Z,93.93
2022-09-22T00:23:29.157Z,93.87
2022-09-22T00:26:04.969Z,94.06
2022-09-22T00:28:38.217Z,94.51
2022-09-22T00:31:12.601Z,94.39
2022-09-22T00:33:45.079Z,94.22
2022-09-22T00:36:18.597Z,94.35
2022-09-22T00:38:51.688Z,94.47
2022-09-22T00:41:26.322Z,94.37
2022-09-22T00:44:34.098Z,94.46
2022-09-22T00:47:15.553Z,94.24
2022-09-22T00:49:52.229Z,94.35
2022-09-22T00:52:27.125Z,94.39
2022-09-22T00:55:04.649Z,94.39
2022-09-22T00:57:39.582Z,94.53
2022-09-22T01:00:13.725Z,94.67
2022-09-22T01:02:49.851Z,94.85
2022-09-22T01:05:23.810Z,94.91
2022-09-22T01:07:56.101Z,95.18
2022-09-22T01:10:28.250Z,95.33
2022-09-22T01:13:08.955Z,95.40
2022-09-22T01:15:48.940Z,95.43
2022-09-22T01:18:29.067Z,95.70
2022-09-22T01:21:20.893Z,95.94
2022-09-22T01:24:34.468Z,96.04
2022-09-22T01:27:35.421Z,96.16
2022-09-22T01:30:31.134Z,96.33
2022-09-22T01:33:18.825Z,96.62
2022-09-22T01:36:04.206Z,96.60
2022-09-22T01:38:46.102Z,96.69
2022-09-22T01:41:23.502Z,96.48
2022-09-22T01:44:01.130Z,96.42
2022-09-22T01:46:37.732Z,96.61
2022-09-22T01:49:14.779Z,96.52
2022-09-22T01:51:50.029Z,96.41
2022-09-22T01:54:28.346Z,96.36
2022-09-22T01:57:06.344Z,96.37
2022-09-22T01:59:41.008Z,96.21
2022-09-22T02:02:20.795Z,96.39
2022-09-22T02:04:58.144Z,96.23
2022-09-22T02:07:35.855Z,96.24
2022-09-22T02:10:13.921Z,95.99
2022-09-22T02:12:47.624Z,96.13
2022-09-22T02:15:37.732Z,96.10
2022-09-22T02:18:13.964Z,95.88
2022-09-22T02:20:46.280Z,95.84
2022-09-22T02:23:18.053Z,95.99
2022-09-22T02:25:50.689Z,95.88
2022-09-22T02:28:26.787Z,95.83
2022-09-22T02:31:19.025Z,96.02
2022-09-22T02:33:53.498Z,95.90
2022-09-22T02:36:39.214Z,95.97
2022-09-22T02:39:14.964Z,95.70
2022-09-22T02:42:03.766Z,95.74
2022-09-22T02:44:45.346Z,95.81
2022-09-22T02:47:23.487Z,95.50
2022-09-22T02:49:56.864Z,95.42
2022-09-22T02:52:28.811Z,95.56
2022-09-22T02:55:01.045Z,95.49
2022-09-22T02:57:33.184Z,95.63
2022-09-22T03:00:07.031Z,95.82
2022-09-22T03:02:39.673Z,95.54
2022-09-22T03:05:12.149Z,95.77
2022-09-22T03:07:44.015Z,95.56
2022-09-22T03:10:16.168Z,95.72
2022-09-22T03:13:14.500Z,95.74
2022-09-22T03:15:39.804Z,95.80
2022-09-22T03:18:11.626Z,95.93
2022-09-22T03:20:44.561Z,95.87
2022-09-22T03:23:22.971Z,96.05
2022-09-22T03:25:57.555Z,96.11
2022-09-22T03:28:29.993Z,96.32
2022-09-22T03:31:01.794Z,96.52
2022-09-22T03:33:33.889Z,96.57
2022-09-22T03:36:06.864Z,96.72
2022-09-22T03:38:38.912Z,96.73
2022-09-22T03:41:10.655Z,96.99
2022-09-22T03:43:42.411Z,97.11
2022-09-22T03:46:15.129Z,97.27
2022-09-22T03:48:47.083Z,97.45
2022-09-22T03:51:19.496Z,97.65
2022-09-22T03:53:51.263Z,97.86
2022-09-22T03:56:23.296Z,97.85
2022-09-22T03:58:55.139Z,97.82
2022-09-22T04:01:27.146Z,97.86
2022-09-22T04:03:59.034Z,98.03
2022-09-22T04:06:30.925Z,98.13
2022-09-22T04:09:02.769Z,98.25
2022-09-22T04:11:36.087Z,98.30
2022-09-22T04:14:08.050Z,98.24
2022-09-22T04:16:43.164Z,98.28
2022-09-22T04:19:15.704Z,98.54
2022-09-22T04:21:47.833Z,98.44
2022-09-22T04:24:20.385Z,98.71
2022-09-22T04:27:18.161Z,98.69
2022-09-22T04:29:44.823Z,98.42
2022-09-22T04:32:16.809Z,98.62
2022-09-22T04:34:48.945Z,98.53
2022-09-22T04:37:20.755Z,98.41
2022-09-22T04:39:54.379Z,98.61
2022-09-22T04:42:26.172Z,98.64
2022-09-22T04:45:02.144Z,98.54
2022-09-22T04:47:34.886Z,98.64
2022-09-22T04:50:07.613Z,98.50
2022-09-22T04:52:39.549Z,98.66
2022-09-22T04:55:12.987Z,98.61
2022-09-22T04:57:48.054Z,98.59
2022-09-22T05:00:21.558Z,98.64
2022-09-22T05:02:53.818Z,98.50
2022-09-22T05:05:25.678Z,98.71
2022-09-22T05:07:57.708Z,98.64
2022-09-22T05:10:32.351Z,98.61
2022-09-22T05:13:04.631Z,98.71
2022-09-22T05:15:37.599Z,98.71
2022-09-22T05:18:10.179Z,98.94
2022-09-22T05:20:41.969Z,98.96
2022-09-22T05:23:14.118Z,98.73
2022-09-22T05:25:45.927Z,98.81
2022-09-22T05:28:17.763Z,98.78
2022-09-22T05:30:52.523Z,99.13
2022-09-22T05:33:24.342Z,99.12
2022-09-22T05:35:56.286Z,99.11
2022-09-22T05:38:28.991Z,99.38
2022-09-22T05:41:01.481Z,99.83
2022-09-22T05:43:33.357Z,99.81
2022-09-22T05:46:05.300Z,99.85
2022-09-22T05:48:37.439Z,99.82
2022-09-22T05:51:09.325Z,100.00
2022-09-22T05:53:41.123Z,100.00
2022-09-22T05:56:12.929Z,99.95
2022-09-22T05:58:45.164Z,99.93
2022-09-22T06:01:17.302Z,100.00
2022-09-22T06:03:49.247Z,100.00
2022-09-22T06:06:21.144Z,100.00
2022-09-22T06:08:52.981Z,100.00
2022-09-22T06:11:24.845Z,100.00
2022-09-22T06:13:56.792Z,100.00
2022-09-22T06:16:28.771Z,100.00
2022-09-22T06:19:00.668Z,100.00
2022-09-22T06:21:32.523Z,100.00
2022-09-22T06:24:05.027Z,100.00
2022-09-22T06:26:37.096Z,100.00
2022-09-22T06:29:10.771Z,100.00
2022-09-22T06:31:43.150Z,100.00
2022-09-22T06:34:15.157Z,100.00
2022-09-22T06:36:47.149Z,100.00
2022-09-22T06:39:19.040Z,100.00
2022-09-22T06:41:50.832Z,100.00
2022-09-22T06:44:22.692Z,100.00
2022-09-22T06:46:54.477Z,100.00
2022-09-22T06:49:26.892Z,100.00
2022-09-22T06:51:58.746Z,100.00
2022-09-22T06:54:31.052Z,100.00
2022-09-22T06:57:04.046Z,100.00
2022-09-22T06:59:39.232Z,100.00
2022-09-22T07:02:12.700Z,100.00
2022-09-22T07:04:45.567Z,100.00
2022-09-22T07:07:17.529Z,100.00
2022-09-22T07:09:53.639Z,100.00
2022-09-22T07:12:26.591Z,100.00
2022-09-22T07:14:58.876Z,100.00
2022-09-22T07:17:35.295Z,100.00
2022-09-22T07:20:09.178Z,100.00
2022-09-22T07:22:41.256Z,100.00
2022-09-22T07:25:13.320Z,99.98
2022-09-22T07:27:45.488Z,99.99
2022-09-22T07:30:17.974Z,99.97
2022-09-22T07:32:49.829Z,99.63
2022-09-22T07:35:21.935Z,99.27
2022-09-22T07:37:59.604Z,99.01
2022-09-22T07:40:32.629Z,98.81
2022-09-22T07:43:04.663Z,98.76
2022-09-22T07:45:37.672Z,98.66
2022-09-22T07:48:27.474Z,98.28
2022-09-22T07:51:00.333Z,97.97
2022-09-22T07:53:32.922Z,97.64
2022-09-22T07:56:12.551Z,96.73
2022-09-22T07:58:50.282Z,96.12
2022-09-22T08:01:24.683Z,96.10
2022-09-22T08:03:59.080Z,95.54
2022-09-22T08:06:31.804Z,94.76
2022-09-22T08:09:07.132Z,94.42
2022-09-22T08:11:39.581Z,93.43
2022-09-22T08:14:14.891Z,93.91
2022-09-22T08:16:47.208Z,93.83
2022-09-22T08:19:21.241Z,93.84
2022-09-22T08:21:55.021Z,93.07
2022-09-22T08:24:26.894Z,93.05
2022-09-22T08:26:58.843Z,93.04
2022-09-22T08:29:31.626Z,92.46
2022-09-22T08:32:04.063Z,92.16
2022-09-22T08:34:36.061Z,92.14
2022-09-22T08:37:09.684Z,92.24
2022-09-22T08:39:43.891Z,92.29
2022-09-22T08:42:20.851Z,92.32
2022-09-22T08:45:00.975Z,91.03
2022-09-22T08:47:55.741Z,90.66
2022-09-22T08:50:52.762Z,90.07
2022-09-22T08:53:25.397Z,90.43
2022-09-22T08:56:07.683Z,88.76
2022-09-22T08:58:48.999Z,88.70
2022-09-22T09:01:52.536Z,88.95
2022-09-22T09:05:02.543Z,88.49
2022-09-22T09:07:43.329Z,88.67
2022-09-22T09:10:32.949Z,88.29
2022-09-22T09:13:23.024Z,87.69
2022-09-22T09:16:14.618Z,87.09
2022-09-22T09:18:54.354Z,86.14
2022-09-22T09:21:27.892Z,85.45
2022-09-22T09:27:03.930Z,85.45
2022-09-22T09:29:43.698Z,85.33
2022-09-22T09:32:28.275Z,85.10
2022-09-22T09:35:00.555Z,85.15
2022-09-22T09:37:33.517Z,84.60
2022-09-22T09:40:09.415Z,83.46
2022-09-22T09:42:41.258Z,84.46
2022-09-22T09:45:17.814Z,84.36
2022-09-22T09:48:04.956Z,83.62
2022-09-22T09:50:39.124Z,82.95
2022-09-22T09:53:26.050Z,81.46
2022-09-22T09:56:00.554Z,81.80
2022-09-22T09:58:50.545Z,79.79
2022-09-22T10:01:22.438Z,80.16
2022-09-22T10:03:54.952Z,79.80
2022-09-22T10:06:29.012Z,79.70
2022-09-22T10:09:00.918Z,78.91
2022-09-22T10:11:33.753Z,79.61
2022-09-22T10:14:05.625Z,79.29
2022-09-22T10:16:37.748Z,79.56
2022-09-22T10:19:27.533Z,79.41
2022-09-22T10:22:25.241Z,79.43
2022-09-22T10:25:03.513Z,80.06
2022-09-22T10:27:35.996Z,79.09
2022-09-22T10:30:24.156Z,77.31
2022-09-22T10:33:19.460Z,76.68
2022-09-22T10:35:57.283Z,76.74
2022-09-22T10:38:33.501Z,76.09
2022-09-22T10:41:09.490Z,75.03
2022-09-22T10:43:48.533Z,71.90
2022-09-22T10:46:34.967Z,72.73
2022-09-22T10:49:17.123Z,72.29
2022-09-22T10:52:05.452Z,72.93
2022-09-22T10:55:04.603Z,72.29
2022-09-22T10:58:08.095Z,72.94
2022-09-22T11:00:42.537Z,73.23
2022-09-22T11:03:40.828Z,73.35
2022-09-22T11:06:54.851Z,73.56
2022-09-22T11:09:56.021Z,72.81
2022-09-22T11:12:43.632Z,73.78
2022-09-22T11:15:34.810Z,73.17
2022-09-22T11:18:22.546Z,71.66
2022-09-22T11:21:04.442Z,70.34
2022-09-22T11:23:57.233Z,70.15
2022-09-22T11:26:50.097Z,69.73
2022-09-22T11:29:47.040Z,70.25
2022-09-22T11:32:34.353Z,68.71
2022-09-22T11:35:23.732Z,68.89
2022-09-22T11:38:10.539Z,69.69
2022-09-22T11:43:50.160Z,67.37
2022-09-22T11:46:31.136Z,66.26
2022-09-22T11:49:19.263Z,66.20
2022-09-22T11:52:17.131Z,67.17
2022-09-22T11:55:05.354Z,65.67
2022-09-22T11:57:42.478Z,65.83
2022-09-22T12:00:19.009Z,64.14
2022-09-22T12:03:01.834Z,65.87
2022-09-22T12:05:41.746Z,66.31
2022-09-22T12:08:17.292Z,66.73
2022-09-22T12:10:50.316Z,65.73
2022-09-22T12:13:26.544Z,66.72
2022-09-22T12:16:08.415Z,66.95
2022-09-22T12:18:46.938Z,66.53
2022-09-22T12:21:32.881Z,66.71
2022-09-22T12:24:11.307Z,66.98
2022-09-22T12:26:46.420Z,67.54
2022-09-22T12:29:28.279Z,66.59
2022-09-22T12:32:01.023Z,67.44
2022-09-22T12:34:36.191Z,67.88
2022-09-22T12:37:15.479Z,67.84
2022-09-22T12:39:49.488Z,67.72
2022-09-22T12:42:29.570Z,68.34
2022-09-22T12:45:07.968Z,67.85
2022-09-22T12:47:43.313Z,68.13
2022-09-22T12:50:38.800Z,67.51
2022-09-22T12:53:25.125Z,67.53
2022-09-22T12:55:58.107Z,67.77
2022-09-22T12:58:45.730Z,67.86
2022-09-22T13:02:19.044Z,68.20
2022-09-22T13:05:22.286Z,67.50
2022-09-22T13:08:05.597Z,67.25
2022-09-22T13:10:55.754Z,68.20
2022-09-22T13:13:37.657Z,66.82
2022-09-22T13:16:37.965Z,67.79
2022-09-22T13:19:14.903Z,68.64
2022-09-22T13:21:50.225Z,69.21
2022-09-22T13:24:28.637Z,69.48
2022-09-22T13:27:08.572Z,69.74
2022-09-22T13:29:40.518Z,69.78
2022-09-22T13:32:26.946Z,69.91
2022-09-22T13:34:59.280Z,71.01
2022-09-22T13:37:32.436Z,70.29
2022-09-22T13:40:12.364Z,70.02
2022-09-22T13:42:47.347Z,70.56
2022-09-22T13:45:24.323Z,70.26
2022-09-22T13:48:06.133Z,70.19
2022-09-22T13:50:50.074Z,70.58
2022-09-22T13:53:23.523Z,71.37
2022-09-22T13:55:57.850Z,71.24
2022-09-22T13:58:36.209Z,71.56
2022-09-22T14:01:16.646Z,71.84
2022-09-22T14:03:49.657Z,72.30
2022-09-22T14:06:24.222Z,72.38
2022-09-22T14:08:57.473Z,72.22
2022-09-22T14:12:02.587Z,72.07
2022-09-22T14:15:32.690Z,72.97
2022-09-22T14:18:18.451Z,74.02
2022-09-22T14:20:53.047Z,74.82
2022-09-22T14:23:32.532Z,74.94
2022-09-22T14:26:18.226Z,74.77
2022-09-22T14:28:52.339Z,74.76
2022-09-22T14:31:30.121Z,74.31
2022-09-22T14:34:39.073Z,74.75
2022-09-22T14:38:17.132Z,75.15
2022-09-22T14:40:58.719Z,75.41
2022-09-22T14:43:37.139Z,75.42
2022-09-22T14:46:25.603Z,75.34
2022-09-22T14:48:57.672Z,75.44
2022-09-22T14:51:32.963Z,75.43
2022-09-22T14:54:13.915Z,75.35
2022-09-22T14:57:43.976Z,75.32
2022-09-22T15:00:36.410Z,75.72
2022-09-22T15:03:16.820Z,76.03
2022-09-22T15:06:06.402Z,76.38
2022-09-22T15:08:39.089Z,76.14
2022-09-22T15:11:11.609Z,75.66
2022-09-22T15:13:45.465Z,75.65
2022-09-22T15:16:40.983Z,75.39
2022-09-22T15:19:14.203Z,75.32
2022-09-22T15:21:49.453Z,75.21
2022-09-22T15:24:26.950Z,74.83
2022-09-22T15:27:00.057Z,73.33
2022-09-22T15:29:32.497Z,73.18
2022-09-22T15:32:06.811Z,73.41
2022-09-22T15:34:43.661Z,72.94
2022-09-22T15:37:24.321Z,73.16
2022-09-22T15:39:56.181Z,72.97
2022-09-22T15:42:28.278Z,72.74
2022-09-22T15:45:00.425Z,72.84
2022-09-22T15:47:33.822Z,72.23
2022-09-22T15:50:06.581Z,71.95
2022-09-22T15:52:45.208Z,71.66
2022-09-22T15:55:18.904Z,71.87
2022-09-22T15:57:54.891Z,72.41
2022-09-22T16:00:32.501Z,73.04
2022-09-22T16:03:07.156Z,73.80
2022-09-22T16:05:40.984Z,74.14
2022-09-22T16:08:17.971Z,74.11
2022-09-22T16:10:49.849Z,74.77
2022-09-22T16:13:21.860Z,75.11
2022-09-22T16:15:54.334Z,75.19
2022-09-22T16:18:26.881Z,75.43
2022-09-22T16:21:07.135Z,75.37
2022-09-22T16:23:39.193Z,75.79
2022-09-22T16:26:11.119Z,76.28
2022-09-22T16:28:42.965Z,76.40
2022-09-22T16:31:15.873Z,76.74
2022-09-22T16:33:51.237Z,76.96
2022-09-22T16:36:24.094Z,77.29
2022-09-22T16:38:56.558Z,77.45
2022-09-22T16:41:30.085Z,77.64
2022-09-22T16:44:03.271Z,77.79
2022-09-22T16:46:38.439Z,78.08
2022-09-22T16:49:14.075Z,78.21
2022-09-22T16:51:49.619Z,78.39
2022-09-22T16:54:25.094Z,78.51
2022-09-22T16:56:57.228Z,78.72
2022-09-22T16:59:30.614Z,78.88
2022-09-22T17:02:14.715Z,79.00
2022-09-22T17:04:46.766Z,79.16
2022-09-22T17:07:18.635Z,79.35
2022-09-22T17:09:50.524Z,79.59
2022-09-22T17:12:29.348Z,79.78
2022-09-22T17:15:01.282Z,80.03
2022-09-22T17:17:36.707Z,80.21
2022-09-22T17:20:10.187Z,80.40
2022-09-22T17:22:42.223Z,80.67
2022-09-22T17:25:14.237Z,80.72
2022-09-22T17:27:46.089Z,80.87
2022-09-22T17:30:18.061Z,81.24
2022-09-22T17:32:50.189Z,81.46
2022-09-22T17:35:22.270Z,81.65
2022-09-22T17:37:54.561Z,81.73
2022-09-22T17:40:26.530Z,81.88
2022-09-22T17:42:58.452Z,82.03
2022-09-22T17:45:31.589Z,82.05
2022-09-22T17:48:26.493Z,82.23
2022-09-22T17:51:15.988Z,82.36
2022-09-22T17:54:05.772Z,82.64
2022-09-22T17:56:59.059Z,82.84
2022-09-22T17:59:31.669Z,83.06
2022-09-22T18:02:05.234Z,83.37
2022-09-22T18:04:37.656Z,83.44
2022-09-22T18:07:16.057Z,83.58
2022-09-22T18:09:49.498Z,83.56
2022-09-22T18:12:25.040Z,83.64
2022-09-22T18:15:02.657Z,83.68
2022-09-22T18:17:41.940Z,83.88
2022-09-22T18:20:16.450Z,83.89
2022-09-22T18:22:50.315Z,84.23
2022-09-22T18:25:25.595Z,84.38
2022-09-22T18:27:58.294Z,84.58
2022-09-22T18:30:31.228Z,84.59
2022-09-22T18:33:03.123Z,84.88
2022-09-22T18:35:35.042Z,84.81
2022-09-22T18:38:06.941Z,84.98
2022-09-22T18:40:38.914Z,85.11
2022-09-22T18:43:11.110Z,84.99
2022-09-22T18:45:43.609Z,85.11
2022-09-22T18:48:17.411Z,85.23
2022-09-22T18:50:50.173Z,85.22
2022-09-22T18:53:22.781Z,85.32
2022-09-22T18:55:55.311Z,85.28
2022-09-22T18:58:27.246Z,85.45
2022-09-22T19:00:59.782Z,85.52
2022-09-22T19:03:31.840Z,85.51
2022-09-22T19:06:03.718Z,85.50
2022-09-22T19:08:35.806Z,85.47
2022-09-22T19:11:07.794Z,85.63
2022-09-22T19:13:39.593Z,85.90
2022-09-22T19:16:13.195Z,85.94
2022-09-22T19:18:45.145Z,86.01
2022-09-22T19:21:16.990Z,85.89
2022-09-22T19:23:49.253Z,86.22
2022-09-22T19:26:23.327Z,86.15
2022-09-22T19:28:55.240Z,86.38
2022-09-22T19:31:27.345Z,86.30
2022-09-22T19:33:59.336Z,86.18
2022-09-22T19:36:31.230Z,86.23
2022-09-22T19:39:03.286Z,86.15
2022-09-22T19:41:36.350Z,86.16
2022-09-22T19:44:09.523Z,86.28
2022-09-22T19:46:42.818Z,86.41
2022-09-22T19:49:15.806Z,86.29
2022-09-22T19:51:47.682Z,86.37
2022-09-22T19:54:20.834Z,86.33
2022-09-22T19:56:52.686Z,86.51
2022-09-22T19:59:24.540Z,86.59
2022-09-22T20:01:56.467Z,86.70
2022-09-22T20:04:28.369Z,86.73
2022-09-22T20:07:00.178Z,86.69
2022-09-22T20:09:32.040Z,86.81
2022-09-22T20:13:26.544Z,86.90
2022-09-22T20:15:58.721Z,87.07
2022-09-22T20:18:31.216Z,87.56
2022-09-22T20:21:04.920Z,87.61
2022-09-22T20:23:37.250Z,87.81
2022-09-22T20:26:12.090Z,87.71
2022-09-22T20:28:44.369Z,87.61
2022-09-22T20:31:16.776Z,87.61
2022-09-22T20:33:48.984Z,87.76
2022-09-22T20:36:20.858Z,87.91
2022-09-22T20:38:53.480Z,88.01
2022-09-22T20:41:25.911Z,88.04
2022-09-22T20:43:58.574Z,88.27
2022-09-22T20:46:30.399Z,88.31
2022-09-22T20:49:04.217Z,88.43
2022-09-22T20:51:37.083Z,88.70
2022-09-22T20:54:09.456Z,89.23
2022-09-22T20:56:42.984Z,89.30
2022-09-22T20:59:15.488Z,89.12
2022-09-22T21:01:47.503Z,88.80
2022-09-22T21:04:19.485Z,89.01
2022-09-22T21:06:51.524Z,89.07
2022-09-22T21:09:41.070Z,89.31
2022-09-22T21:12:13.853Z,89.67
2022-09-22T21:14:46.226Z,89.84
2022-09-22T21:17:18.143Z,89.90
2022-09-22T21:19:50.030Z,90.06
2022-09-22T21:22:21.941Z,90.46
2022-09-22T21:24:54.047Z,90.51
2022-09-22T21:27:26.245Z,90.55
2022-09-22T21:29:58.020Z,90.41
2022-09-22T21:32:31.368Z,90.01
2022-09-22T21:35:03.197Z,90.02
2022-09-22T21:37:36.163Z,89.93
2022-09-22T21:40:10.191Z,90.04
2022-09-22T21:42:42.094Z,89.97
2022-09-22T21:45:14.229Z,90.26
2022-09-22T21:47:45.956Z,90.51
2022-09-22T21:50:17.810Z,90.89
2022-09-22T21:52:49.698Z,91.31
2022-09-22T21:55:21.844Z,91.05
2022-09-22T21:57:56.453Z,91.52
2022-09-22T22:00:50.672Z,91.67
2022-09-22T22:03:32.325Z,91.71
2022-09-22T22:06:10.519Z,91.74
2022-09-22T22:08:47.017Z,91.72
2022-09-22T22:11:22.260Z,91.81
2022-09-22T22:13:55.987Z,91.82
2022-09-22T22:16:31.419Z,91.89
2022-09-22T22:19:03.261Z,91.54
2022-09-22T22:21:35.447Z,91.40
2022-09-22T22:24:28.773Z,91.52
2022-09-22T22:27:05.798Z,91.57
2022-09-22T22:29:39.621Z,91.73
2022-09-22T22:32:12.195Z,91.69
2022-09-22T22:34:43.954Z,91.56
2022-09-22T22:37:16.934Z,91.51
2022-09-22T22:39:49.280Z,91.63
2022-09-22T22:42:21.498Z,91.81
2022-09-22T22:44:53.321Z,91.97
2022-09-22T22:47:25.708Z,91.87
2022-09-22T22:49:57.551Z,91.82
2022-09-22T22:52:29.328Z,91.82
2022-09-22T22:55:01.192Z,91.37
2022-09-22T22:57:33.045Z,91.42
2022-09-22T23:00:05.846Z,91.81
2022-09-22T23:02:38.763Z,91.74
2022-09-22T23:05:12.291Z,91.93
2022-09-22T23:07:44.419Z,91.86
2022-09-22T23:10:16.315Z,92.12
2022-09-22T23:12:48.780Z,92.14
2022-09-22T23:15:21.596Z,92.21
2022-09-22T23:17:53.536Z,92.17
2022-09-22T23:20:25.938Z,92.27
2022-09-22T23:22:58.166Z,92.14
2022-09-22T23:25:30.117Z,92.58
2022-09-22T23:28:04.839Z,92.48
2022-09-22T23:30:37.331Z,92.57
2022-09-22T23:33:11.346Z,92.51
2022-09-22T23:35:43.069Z,92.53
2022-09-22T23:38:17.444Z,92.46
2022-09-22T23:40:49.557Z,92.55
2022-09-22T23:43:21.559Z,92.28
2022-09-22T23:45:54.935Z,92.65
2022-09-22T23:48:29.312Z,92.46
2022-09-22T23:51:01.832Z,92.39
2022-09-22T23:53:36.053Z,92.25
2022-09-22T23:56:09.437Z,91.95
2022-09-22T23:58:42.327Z,92.32
